createdAt,value
2023-03-02T00:02:25.899Z,72.70
2023-03-02T00:06:32.954Z,72.80
2023-03-02T00:10:38.794Z,73.30
2023-03-02T00:14:44.740Z,73.30
2023-03-02T00:18:50.234Z,73.20
2023-03-02T00:22:55.758Z,73.40
2023-03-02T00:27:01.200Z,73.30
2023-03-02T00:31:07.154Z,73.40
2023-03-02T00:35:12.843Z,73.50
2023-03-02T00:39:20.137Z,73.70
2023-03-02T00:43:28.039Z,73.60
2023-03-02T00:47:36.185Z,73.50
2023-03-02T00:51:41.759Z,73.50
2023-03-02T00:55:56.356Z,73.40
2023-03-02T01:00:01.959Z,73.70
2023-03-02T01:04:07.572Z,73.60
2023-03-02T01:08:14.011Z,73.60
2023-03-02T01:12:19.834Z,73.60
2023-03-02T01:16:25.445Z,73.50
2023-03-02T01:20:31.174Z,73.70
2023-03-02T01:24:36.673Z,73.80
2023-03-02T01:28:42.161Z,73.50
2023-03-02T01:32:47.804Z,73.20
2023-03-02T01:36:53.313Z,73.20
2023-03-02T01:40:58.817Z,73.20
2023-03-02T01:45:26.840Z,73.30
2023-03-02T01:49:35.459Z,73.30
2023-03-02T01:53:46.563Z,73.30
2023-03-02T01:57:54.800Z,73.70
2023-03-02T02:02:04.346Z,73.00
2023-03-02T02:06:27.025Z,73.70
2023-03-02T02:10:33.993Z,73.10
2023-03-02T02:14:39.900Z,73.10
2023-03-02T02:18:45.410Z,73.00
2023-03-02T02:23:21.325Z,73.10
2023-03-02T02:27:34.023Z,73.50
2023-03-02T02:31:53.708Z,73.50
2023-03-02T02:36:07.562Z,73.90
2023-03-02T02:40:21.549Z,73.80
2023-03-02T02:44:27.138Z,73.70
2023-03-02T02:48:33.399Z,73.70
2023-03-02T02:52:40.981Z,74.00
2023-03-02T02:56:49.159Z,73.90
2023-03-02T03:00:54.989Z,74.10
2023-03-02T03:05:03.653Z,73.90
2023-03-02T03:09:11.297Z,73.80
2023-03-02T03:13:16.817Z,74.10
2023-03-02T03:17:22.476Z,74.00
2023-03-02T03:21:28.018Z,74.20
2023-03-02T03:25:34.990Z,74.20
2023-03-02T03:29:48.368Z,74.20
2023-03-02T03:33:56.369Z,74.90
2023-03-02T03:38:01.980Z,74.40
2023-03-02T03:42:07.483Z,74.40
2023-03-02T03:46:13.014Z,74.40
2023-03-02T03:50:18.860Z,74.50
2023-03-02T03:54:24.444Z,74.50
2023-03-02T03:58:31.766Z,74.60
2023-03-02T04:02:38.069Z,74.60
2023-03-02T04:06:43.986Z,74.70
2023-03-02T04:10:49.657Z,74.80
2023-03-02T04:14:55.096Z,74.80
2023-03-02T04:19:01.420Z,75.00
2023-03-02T04:23:07.050Z,75.20
2023-03-02T04:27:13.997Z,75.30
2023-03-02T04:31:19.947Z,75.50
2023-03-02T04:35:25.816Z,75.30
2023-03-02T04:39:31.309Z,75.20
2023-03-02T04:43:36.883Z,75.30
2023-03-02T04:47:42.851Z,75.30
2023-03-02T04:51:49.861Z,75.40
2023-03-02T04:55:55.507Z,76.00
2023-03-02T05:00:00.936Z,76.00
2023-03-02T05:04:06.557Z,75.80
2023-03-02T05:08:12.409Z,75.80
2023-03-02T05:12:19.249Z,76.40
2023-03-02T05:16:26.823Z,76.50
2023-03-02T05:20:32.357Z,76.40
2023-03-02T05:24:38.111Z,76.40
2023-03-02T05:28:44.397Z,77.10
2023-03-02T05:32:51.199Z,76.30
2023-03-02T05:36:58.175Z,76.90
2023-03-02T05:41:04.456Z,76.60
2023-03-02T05:45:19.793Z,76.30
2023-03-02T05:49:25.308Z,76.30
2023-03-02T05:53:31.074Z,76.20
2023-03-02T05:57:36.533Z,76.00
2023-03-02T06:01:42.256Z,76.70
2023-03-02T06:05:52.422Z,76.20
2023-03-02T06:09:57.969Z,75.80
2023-03-02T06:14:03.709Z,76.30
2023-03-02T06:18:09.371Z,76.10
2023-03-02T06:22:15.077Z,76.20
2023-03-02T06:26:20.599Z,76.20
2023-03-02T06:30:28.047Z,76.10
2023-03-02T06:34:35.396Z,75.90
2023-03-02T06:38:40.945Z,76.00
2023-03-02T06:42:46.474Z,75.90
2023-03-02T06:46:52.412Z,76.00
2023-03-02T06:50:58.837Z,76.10
2023-03-02T06:55:05.589Z,76.10
2023-03-02T06:59:11.190Z,75.70
2023-03-02T07:03:17.448Z,76.40
2023-03-02T07:07:23.008Z,75.80
2023-03-02T07:11:28.538Z,75.80
2023-03-02T07:15:34.185Z,75.80
2023-03-02T07:19:40.977Z,75.80
2023-03-02T07:23:46.557Z,75.80
2023-03-02T07:27:52.179Z,75.80
2023-03-02T07:32:00.466Z,75.80
2023-03-02T07:36:08.117Z,75.60
2023-03-02T07:40:14.305Z,75.80
2023-03-02T07:44:19.925Z,75.70
2023-03-02T07:48:25.386Z,76.00
2023-03-02T07:52:31.252Z,75.60
2023-03-02T07:56:36.942Z,75.60
2023-03-02T08:00:42.804Z,75.70
2023-03-02T08:04:48.749Z,75.80
2023-03-02T08:08:54.329Z,76.00
2023-03-02T08:12:59.876Z,76.10
2023-03-02T08:17:07.134Z,76.10
2023-03-02T08:21:16.464Z,75.90
2023-03-02T08:25:21.967Z,75.90
2023-03-02T08:29:27.646Z,76.00
2023-03-02T08:33:34.259Z,76.00
2023-03-02T08:37:39.744Z,75.60
2023-03-02T08:41:45.230Z,75.70
2023-03-02T08:45:57.824Z,75.60
2023-03-02T08:50:04.924Z,75.20
2023-03-02T08:54:10.636Z,75.20
2023-03-02T08:58:16.203Z,75.10
2023-03-02T09:02:21.672Z,75.30
2023-03-02T09:06:29.725Z,75.20
2023-03-02T09:10:35.625Z,75.60
2023-03-02T09:14:41.567Z,75.00
2023-03-02T09:18:47.952Z,75.20
2023-03-02T09:22:53.460Z,75.20
2023-03-02T09:26:58.893Z,74.50
2023-03-02T09:31:07.704Z,75.10
2023-03-02T09:35:13.288Z,75.00
2023-03-02T09:39:19.537Z,74.80
2023-03-02T09:43:55.832Z,74.40
2023-03-02T09:48:13.071Z,74.70
2023-03-02T09:52:35.544Z,74.40
2023-03-02T09:56:55.593Z,74.30
2023-03-02T10:01:10.195Z,74.20
2023-03-02T10:05:24.832Z,74.20
2023-03-02T10:09:30.359Z,74.10
2023-03-02T10:13:53.992Z,73.90
2023-03-02T10:18:26.943Z,74.40
2023-03-02T10:22:44.646Z,74.30
2023-03-02T10:27:00.179Z,73.60
2023-03-02T10:31:10.100Z,73.50
2023-03-02T10:35:25.568Z,73.70
2023-03-02T10:39:31.181Z,73.50
2023-03-02T10:43:49.295Z,73.30
2023-03-02T10:48:09.996Z,72.70
2023-03-02T10:52:21.963Z,73.30
2023-03-02T10:56:27.485Z,73.00
2023-03-02T11:00:35.540Z,72.20
2023-03-02T11:04:41.306Z,72.40
2023-03-02T11:08:47.058Z,71.70
2023-03-02T11:12:53.651Z,71.90
2023-03-02T11:17:02.446Z,71.50
2023-03-02T11:21:16.476Z,72.00
2023-03-02T11:25:49.880Z,71.10
2023-03-02T11:30:19.376Z,70.10
2023-03-02T11:34:50.171Z,70.80
2023-03-02T11:38:56.128Z,70.20
2023-03-02T11:43:04.915Z,70.30
2023-03-02T11:47:12.629Z,70.30
2023-03-02T11:51:22.824Z,70.10
2023-03-02T11:55:34.211Z,70.00
2023-03-02T11:59:39.844Z,70.20
2023-03-02T12:03:46.075Z,69.90
2023-03-02T12:08:20.038Z,69.20
2023-03-02T12:12:37.049Z,68.40
2023-03-02T12:16:43.808Z,67.80
2023-03-02T12:21:07.653Z,68.60
2023-03-02T12:25:19.390Z,67.50
2023-03-02T12:29:25.678Z,67.50
2023-03-02T12:33:31.427Z,68.00
2023-03-02T12:37:53.555Z,67.90
2023-03-02T12:42:29.717Z,67.10
2023-03-02T12:46:37.627Z,66.90
2023-03-02T12:50:43.683Z,67.40
2023-03-02T12:55:11.668Z,67.40
2023-03-02T12:59:27.187Z,65.80
2023-03-02T13:03:33.195Z,67.20
2023-03-02T13:07:51.062Z,67.00
2023-03-02T13:11:57.793Z,66.50
2023-03-02T13:16:22.783Z,65.60
2023-03-02T13:20:30.172Z,65.90
2023-03-02T13:24:56.398Z,65.40
2023-03-02T13:29:19.301Z,64.70
2023-03-02T13:33:27.200Z,63.60
2023-03-02T13:37:43.821Z,65.00
2023-03-02T13:42:01.986Z,64.50
2023-03-02T13:46:36.663Z,64.50
2023-03-02T13:50:53.694Z,63.30
2023-03-02T13:54:59.182Z,63.40
2023-03-02T13:59:13.506Z,63.90
2023-03-02T14:03:30.928Z,63.20
2023-03-02T14:07:36.612Z,63.00
2023-03-02T14:11:49.632Z,63.60
2023-03-02T14:15:55.828Z,63.00
2023-03-02T14:20:01.485Z,63.30
2023-03-02T14:24:07.412Z,63.40
2023-03-02T14:28:25.492Z,62.60
2023-03-02T14:32:31.365Z,62.00
2023-03-02T14:36:36.854Z,62.60
2023-03-02T14:40:42.356Z,62.50
2023-03-02T14:44:50.135Z,61.80
2023-03-02T14:48:56.144Z,61.70
2023-03-02T14:53:01.725Z,61.30
2023-03-02T14:57:19.214Z,61.20
2023-03-02T15:01:24.913Z,61.50
2023-03-02T15:05:30.813Z,62.10
2023-03-02T15:09:36.394Z,62.40
2023-03-02T15:13:43.717Z,62.30
2023-03-02T15:17:50.274Z,62.30
2023-03-02T15:21:58.616Z,62.20
2023-03-02T15:26:04.707Z,62.20
2023-03-02T15:30:12.324Z,62.00
2023-03-02T15:34:17.829Z,62.00
2023-03-02T15:38:24.893Z,62.00
2023-03-02T15:42:30.385Z,62.00
2023-03-02T15:46:36.159Z,62.00
2023-03-02T15:50:41.730Z,62.70
2023-03-02T15:54:47.628Z,62.70
2023-03-02T15:58:53.267Z,63.80
2023-03-02T16:02:58.953Z,63.00
2023-03-02T16:07:04.683Z,63.30
2023-03-02T16:11:11.333Z,63.50
2023-03-02T16:15:16.978Z,63.40
2023-03-02T16:19:22.621Z,63.60
2023-03-02T16:23:28.219Z,63.90
2023-03-02T16:27:33.779Z,64.10
2023-03-02T16:31:40.207Z,64.10
2023-03-02T16:35:45.691Z,64.30
2023-03-02T16:39:51.186Z,64.70
2023-03-02T16:43:59.878Z,64.80
2023-03-02T16:48:06.477Z,65.00
2023-03-02T16:52:11.931Z,65.10
2023-03-02T16:56:17.615Z,65.20
2023-03-02T17:00:24.694Z,65.30
2023-03-02T17:04:30.355Z,65.20
2023-03-02T17:08:36.469Z,65.00
2023-03-02T17:12:41.968Z,64.90
2023-03-02T17:16:47.512Z,64.80
2023-03-02T17:20:55.792Z,65.00
2023-03-02T17:25:03.533Z,65.00
2023-03-02T17:29:10.132Z,65.80
2023-03-02T17:33:16.843Z,65.20
2023-03-02T17:37:22.477Z,65.00
2023-03-02T17:41:28.101Z,65.00
2023-03-02T17:45:33.637Z,63.20
2023-03-02T17:49:40.646Z,64.10
2023-03-02T17:53:49.016Z,64.70
2023-03-02T17:57:54.748Z,65.20
2023-03-02T18:02:00.733Z,65.20
2023-03-02T18:06:06.804Z,65.10
2023-03-02T18:10:14.102Z,65.60
2023-03-02T18:14:20.910Z,66.10
2023-03-02T18:18:26.412Z,66.00
2023-03-02T18:22:31.926Z,66.30
2023-03-02T18:26:37.953Z,66.10
2023-03-02T18:30:43.580Z,66.20
2023-03-02T18:34:49.110Z,66.20
2023-03-02T18:38:54.692Z,66.40
2023-03-02T18:43:00.288Z,66.20
2023-03-02T18:47:07.684Z,66.00
2023-03-02T18:51:13.469Z,66.00
2023-03-02T18:55:21.184Z,66.10
2023-03-02T18:59:26.789Z,66.90
2023-03-02T19:03:35.428Z,66.80
2023-03-02T19:07:41.342Z,66.50
2023-03-02T19:11:47.187Z,66.20
2023-03-02T19:15:54.877Z,66.50
2023-03-02T19:20:00.389Z,66.50
2023-03-02T19:24:06.403Z,66.30
2023-03-02T19:28:12.566Z,66.70
2023-03-02T19:32:20.126Z,66.70
2023-03-02T19:36:26.051Z,66.80
2023-03-02T19:40:32.125Z,67.50
2023-03-02T19:44:38.041Z,67.50
2023-03-02T19:48:44.384Z,67.40
2023-03-02T19:52:52.425Z,67.20
2023-03-02T19:56:58.000Z,67.20
2023-03-02T20:01:04.411Z,67.10
2023-03-02T20:05:10.719Z,67.30
2023-03-02T20:09:19.682Z,67.70
2023-03-02T20:13:27.148Z,67.60
2023-03-02T20:17:33.841Z,67.60
2023-03-02T20:21:39.404Z,67.50
2023-03-02T20:25:47.200Z,67.40
2023-03-02T20:29:53.835Z,67.50
2023-03-02T20:33:59.357Z,67.40
2023-03-02T20:38:07.967Z,67.70
2023-03-02T20:42:13.643Z,67.60
2023-03-02T20:46:30.020Z,67.60
2023-03-02T20:50:36.773Z,67.70
2023-03-02T20:54:43.766Z,67.90
2023-03-02T20:58:50.163Z,68.50
2023-03-02T21:02:57.218Z,67.90
2023-03-02T21:07:03.062Z,68.40
2023-03-02T21:11:15.965Z,68.80
2023-03-02T21:15:23.950Z,68.90
2023-03-02T21:19:29.709Z,69.00
2023-03-02T21:23:35.378Z,68.70
2023-03-02T21:27:41.122Z,68.40
2023-03-02T21:31:47.863Z,68.40
2023-03-02T21:35:53.416Z,68.90
2023-03-02T21:39:59.248Z,68.90
2023-03-02T21:44:06.083Z,68.80
2023-03-02T21:48:14.367Z,68.70
2023-03-02T21:52:20.087Z,68.90
2023-03-02T21:56:26.950Z,69.40
2023-03-02T22:00:36.278Z,69.20
2023-03-02T22:04:41.992Z,69.00
2023-03-02T22:08:47.624Z,69.40
2023-03-02T22:13:29.462Z,69.30
2023-03-02T22:17:34.928Z,69.30
2023-03-02T22:21:46.930Z,69.10
2023-03-02T22:26:12.583Z,69.30
2023-03-02T22:30:23.652Z,69.20
2023-03-02T22:34:31.280Z,69.20
2023-03-02T22:38:37.448Z,69.00
2023-03-02T22:42:43.168Z,69.00
2023-03-02T22:46:48.696Z,69.10
2023-03-02T22:50:54.372Z,69.10
2023-03-02T22:54:59.853Z,69.40
2023-03-02T22:59:28.159Z,69.50
2023-03-02T23:03:42.573Z,70.30
2023-03-02T23:07:48.322Z,69.60
2023-03-02T23:12:19.712Z,69.30
2023-03-02T23:16:29.228Z,69.60
2023-03-02T23:20:34.868Z,69.40
2023-03-02T23:24:40.669Z,69.10
2023-03-02T23:28:48.837Z,69.00
2023-03-02T23:32:54.501Z,69.00
2023-03-02T23:37:00.529Z,69.70
2023-03-02T23:41:07.486Z,69.20
2023-03-02T23:45:12.944Z,69.20
2023-03-02T23:49:19.041Z,69.10
2023-03-02T23:53:24.694Z,69.20
2023-03-02T23:57:30.393Z,69.30
